Terminal Aerodrome Forecast
Issued by NWS Albany, NY

Home | Current Version | Previous Version | Text Only | Print | Product List | Glossary On
Versions: 1 2 3 4 5 6 7 8 9 10 11 12 13 14 15 16 17 18 19 20
000
FTUS41 KALY 242333
TAFGFL
TAF
KGFL 242333Z 2500/2524 18005KT P6SM FEW250
     FM250600 18004KT 4SM BR SCT250
      TEMPO 2508/2510 2SM BR
     FM251100 20004KT P6SM SCT120 BKN250
     FM251400 20008KT P6SM SCT050 BKN120
     FM251700 19010G16KT P6SM VCSH BKN050 OVC100
     FM252200 20008KT P6SM VCSH OVC050=

USA.gov is the U.S. government's official web portal to all federal, state and local government web resources and services.